Terminal Aerodrome Forecast
Issued by NWS

Home | Current Version | Previous Version | Text Only | Print | Product List | Glossary On
Versions: 1 2 3 4 5 6 7 8 9 10 11 12 13
000
FTUS46 KSEW 231700
TAFOLM
TAF
KOLM 231728Z 2318/2418 22004KT P6SM SCT004 BKN009 OVC028
      TEMPO 2318/2320 4SM -RA BR BKN004 OVC010
     FM232000 22010KT P6SM -SHRA VCTS SCT015CB OVC030
     FM240300 22014KT P6SM -SHRA SCT015 BKN025 OVC040=

USA.gov is the U.S. government's official web portal to all federal, state and local government web resources and services.